sensor_id;sensor_type;location;lat;lon;timestamp;pressure;altitude;pressure_sealevel;temperature;humidity
10658;BME280;5377;43.276;26.930;2023-07-30T00:01:53;98777.38;;;21.03;100.00
10658;BME280;5377;43.276;26.930;2023-07-30T00:04:20;98782.56;;;21.05;100.00
10658;BME280;5377;43.276;26.930;2023-07-30T00:06:47;98780.63;;;21.05;100.00
10658;BME280;5377;43.276;26.930;2023-07-30T00:09:13;98785.28;;;21.05;100.00
10658;BME280;5377;43.276;26.930;2023-07-30T00:11:40;98784.75;;;20.98;100.00
10658;BME280;5377;43.276;26.930;2023-07-30T00:14:08;98783.66;;;20.99;100.00
10658;BME280;5377;43.276;26.930;2023-07-30T00:16:35;98761.16;;;20.73;100.00
10658;BME280;5377;43.276;26.930;2023-07-30T00:19:02;98775.31;;;20.85;100.00
10658;BME280;5377;43.276;26.930;2023-07-30T00:21:29;98777.47;;;20.88;100.00
10658;BME280;5377;43.276;26.930;2023-07-30T00:23:56;98761.69;;;20.85;100.00
10658;BME280;5377;43.276;26.930;2023-07-30T00:26:22;98764.91;;;20.92;100.00
10658;BME280;5377;43.276;26.930;2023-07-30T00:28:51;98763.00;;;20.93;100.00
10658;BME280;5377;43.276;26.930;2023-07-30T00:31:19;98761.59;;;21.00;100.00
10658;BME280;5377;43.276;26.930;2023-07-30T00:33:46;98757.78;;;21.01;100.00
10658;BME280;5377;43.276;26.930;2023-07-30T00:36:13;98750.25;;;20.78;100.00
10658;BME280;5377;43.276;26.930;2023-07-30T00:38:40;98764.38;;;20.90;100.00
10658;BME280;5377;43.276;26.930;2023-07-30T00:41:07;98770.13;;;20.89;100.00
10658;BME280;5377;43.276;26.930;2023-07-30T00:43:33;98766.28;;;20.90;100.00
10658;BME280;5377;43.276;26.930;2023-07-30T00:46:00;98740.22;;;20.73;100.00
10658;BME280;5377;43.276;26.930;2023-07-30T00:48:29;98755.66;;;20.93;100.00
10658;BME280;5377;43.276;26.930;2023-07-30T00:50:57;98712.53;;;20.56;100.00
10658;BME280;5377;43.276;26.930;2023-07-30T00:53:26;98745.34;;;20.80;100.00
10658;BME280;5377;43.276;26.930;2023-07-30T00:55:53;98749.44;;;20.77;100.00
10658;BME280;5377;43.276;26.930;2023-07-30T00:58:21;98613.22;;;19.63;100.00
10658;BME280;5377;43.276;26.930;2023-07-30T01:00:48;98761.13;;;20.88;100.00
10658;BME280;5377;43.276;26.930;2023-07-30T01:03:14;98766.03;;;20.86;100.00
10658;BME280;5377;43.276;26.930;2023-07-30T01:05:43;98749.44;;;20.82;100.00
10658;BME280;5377;43.276;26.930;2023-07-30T01:08:10;98767.09;;;20.90;100.00
10658;BME280;5377;43.276;26.930;2023-07-30T01:10:38;98765.78;;;20.77;100.00
10658;BME280;5377;43.276;26.930;2023-07-30T01:13:09;98772.06;;;20.73;100.00
10658;BME280;5377;43.276;26.930;2023-07-30T01:15:37;98778.34;;;20.63;100.00
10658;BME280;5377;43.276;26.930;2023-07-30T01:18:04;98769.41;;;20.58;100.00
10658;BME280;5377;43.276;26.930;2023-07-30T01:20:32;98765.06;;;20.51;100.00
10658;BME280;5377;43.276;26.930;2023-07-30T01:23:00;98769.69;;;20.51;100.00
10658;BME280;5377;43.276;26.930;2023-07-30T01:25:29;98781.94;;;20.48;100.00
10658;BME280;5377;43.276;26.930;2023-07-30T01:27:59;98765.59;;;20.59;100.00
10658;BME280;5377;43.276;26.930;2023-07-30T01:30:30;98760.91;;;20.69;100.00
10658;BME280;5377;43.276;26.930;2023-07-30T01:32:59;98703.63;;;20.25;100.00
10658;BME280;5377;43.276;26.930;2023-07-30T01:35:27;98770.50;;;20.51;100.00
10658;BME280;5377;43.276;26.930;2023-07-30T01:37:55;98779.75;;;20.50;100.00
10658;BME280;5377;43.276;26.930;2023-07-30T01:40:23;98774.03;;;20.42;100.00
10658;BME280;5377;43.276;26.930;2023-07-30T01:42:50;98774.84;;;20.32;100.00
10658;BME280;5377;43.276;26.930;2023-07-30T01:45:17;98771.59;;;20.30;100.00
10658;BME280;5377;43.276;26.930;2023-07-30T01:47:44;98749.84;;;20.10;100.00
10658;BME280;5377;43.276;26.930;2023-07-30T01:50:11;98786.28;;;20.29;100.00
10658;BME280;5377;43.276;26.930;2023-07-30T01:52:38;98778.94;;;20.30;100.00
10658;BME280;5377;43.276;26.930;2023-07-30T01:55:05;98777.06;;;20.15;100.00
10658;BME280;5377;43.276;26.930;2023-07-30T01:57:34;98779.50;;;20.16;100.00
10658;BME280;5377;43.276;26.930;2023-07-30T02:00:00;98783.88;;;20.12;100.00
10658;BME280;5377;43.276;26.930;2023-07-30T02:02:28;98777.59;;;20.12;100.00
10658;BME280;5377;43.276;26.930;2023-07-30T02:04:55;98777.59;;;20.02;100.00
10658;BME280;5377;43.276;26.930;2023-07-30T02:07:22;98773.25;;;19.96;100.00
10658;BME280;5377;43.276;26.930;2023-07-30T02:09:48;98775.44;;;19.93;100.00
10658;BME280;5377;43.276;26.930;2023-07-30T02:12:15;98777.63;;;19.97;100.00
10658;BME280;5377;43.276;26.930;2023-07-30T02:14:43;98772.72;;;19.99;100.00
10658;BME280;5377;43.276;26.930;2023-07-30T02:17:10;98770.53;;;20.01;100.00
10658;BME280;5377;43.276;26.930;2023-07-30T02:19:37;98755.34;;;19.89;100.00
10658;BME280;5377;43.276;26.930;2023-07-30T02:22:04;98765.38;;;19.99;100.00
10658;BME280;5377;43.276;26.930;2023-07-30T02:24:31;98767.28;;;19.93;100.00
10658;BME280;5377;43.276;26.930;2023-07-30T02:26:58;98773.53;;;19.89;100.00
10658;BME280;5377;43.276;26.930;2023-07-30T02:29:24;98773.28;;;19.85;100.00
10658;BME280;5377;43.276;26.930;2023-07-30T02:31:54;98777.63;;;19.91;100.00
10658;BME280;5377;43.276;26.930;2023-07-30T02:34:20;98771.38;;;19.91;100.00
10658;BME280;5377;43.276;26.930;2023-07-30T02:36:49;98762.09;;;19.67;100.00
10658;BME280;5377;43.276;26.930;2023-07-30T02:39:15;98778.44;;;19.82;100.00
10658;BME280;5377;43.276;26.930;2023-07-30T02:41:42;98783.56;;;19.68;100.00
10658;BME280;5377;43.276;26.930;2023-07-30T02:44:09;98787.38;;;19.62;100.00
10658;BME280;5377;43.276;26.930;2023-07-30T02:46:36;98787.91;;;19.59;100.00
10658;BME280;5377;43.276;26.930;2023-07-30T02:49:04;98766.41;;;19.47;100.00
10658;BME280;5377;43.276;26.930;2023-07-30T02:51:30;98786.84;;;19.60;100.00
10658;BME280;5377;43.276;26.930;2023-07-30T02:53:58;98789.28;;;19.56;100.00
10658;BME280;5377;43.276;26.930;2023-07-30T02:56:25;98799.28;;;19.51;100.00
10658;BME280;5377;43.276;26.930;2023-07-30T02:58:52;98797.16;;;19.58;100.00
10658;BME280;5377;43.276;26.930;2023-07-30T03:01:18;98802.59;;;19.58;100.00
10658;BME280;5377;43.276;26.930;2023-07-30T03:03:45;98795.50;;;19.52;100.00
10658;BME280;5377;43.276;26.930;2023-07-30T03:06:13;98800.91;;;19.52;100.00
10658;BME280;5377;43.276;26.930;2023-07-30T03:08:42;98792.25;;;19.60;100.00
10658;BME280;5377;43.276;26.930;2023-07-30T03:11:09;98797.97;;;19.63;100.00
10658;BME280;5377;43.276;26.930;2023-07-30T03:13:35;98799.06;;;19.68;100.00
10658;BME280;5377;43.276;26.930;2023-07-30T03:16:03;98809.13;;;19.62;100.00
10658;BME280;5377;43.276;26.930;2023-07-30T03:18:29;98805.84;;;19.65;100.00
10658;BME280;5377;43.276;26.930;2023-07-30T03:20:58;98803.97;;;19.76;100.00
10658;BME280;5377;43.276;26.930;2023-07-30T03:23:27;98796.63;;;19.71;100.00
10658;BME280;5377;43.276;26.930;2023-07-30T03:25:53;98805.59;;;19.72;100.00
10658;BME280;5377;43.276;26.930;2023-07-30T03:28:20;98797.97;;;19.74;100.00
10658;BME280;5377;43.276;26.930;2023-07-30T03:30:47;98800.16;;;19.72;100.00
10658;BME280;5377;43.276;26.930;2023-07-30T03:33:14;98799.88;;;19.68;100.00
10658;BME280;5377;43.276;26.930;2023-07-30T03:35:40;98800.97;;;19.72;100.00
10658;BME280;5377;43.276;26.930;2023-07-30T03:38:07;98802.59;;;19.73;100.00
10658;BME280;5377;43.276;26.930;2023-07-30T03:40:36;98805.34;;;19.78;100.00
10658;BME280;5377;43.276;26.930;2023-07-30T03:43:02;98810.78;;;19.93;100.00
10658;BME280;5377;43.276;26.930;2023-07-30T03:45:29;98796.91;;;20.00;100.00
10658;BME280;5377;43.276;26.930;2023-07-30T03:47:56;98791.22;;;19.91;100.00
10658;BME280;5377;43.276;26.930;2023-07-30T03:50:23;98794.75;;;19.97;100.00
10658;BME280;5377;43.276;26.930;2023-07-30T03:52:50;98759.94;;;19.74;100.00
10658;BME280;5377;43.276;26.930;2023-07-30T03:55:16;98799.09;;;19.98;100.00
10658;BME280;5377;43.276;26.930;2023-07-30T03:57:45;98790.13;;;19.98;100.00
10658;BME280;5377;43.276;26.930;2023-07-30T04:00:11;98802.06;;;20.12;100.00
10658;BME280;5377;43.276;26.930;2023-07-30T04:02:38;98806.44;;;20.18;100.00
10658;BME280;5377;43.276;26.930;2023-07-30T04:05:05;98805.34;;;20.14;100.00
10658;BME280;5377;43.276;26.930;2023-07-30T04:07:32;98809.69;;;20.15;100.00
10658;BME280;5377;43.276;26.930;2023-07-30T04:09:59;98796.91;;;20.15;100.00
10658;BME280;5377;43.276;26.930;2023-07-30T04:12:26;98790.63;;;20.30;100.00
10658;BME280;5377;43.276;26.930;2023-07-30T04:14:54;98805.59;;;20.53;100.00
10658;BME280;5377;43.276;26.930;2023-07-30T04:17:21;98807.47;;;20.68;100.00
10658;BME280;5377;43.276;26.930;2023-07-30T04:19:47;98810.16;;;20.73;100.00
10658;BME280;5377;43.276;26.930;2023-07-30T04:22:14;98803.91;;;20.82;100.00
10658;BME280;5377;43.276;26.930;2023-07-30T04:24:41;98804.63;;;21.03;100.00
10658;BME280;5377;43.276;26.930;2023-07-30T04:27:08;98806.53;;;21.03;100.00
10658;BME280;5377;43.276;26.930;2023-07-30T04:29:35;98805.44;;;21.04;100.00
10658;BME280;5377;43.276;26.930;2023-07-30T04:32:03;98817.91;;;21.25;100.00
10658;BME280;5377;43.276;26.930;2023-07-30T04:34:30;98815.41;;;21.34;100.00
10658;BME280;5377;43.276;26.930;2023-07-30T04:36:57;98814.81;;;21.42;100.00
10658;BME280;5377;43.276;26.930;2023-07-30T04:39:24;98821.59;;;21.44;100.00
10658;BME280;5377;43.276;26.930;2023-07-30T04:41:51;98812.03;;;21.47;100.00
10658;BME280;5377;43.276;26.930;2023-07-30T04:44:17;98806.84;;;21.51;100.00
10658;BME280;5377;43.276;26.930;2023-07-30T04:46:44;98819.59;;;21.65;100.00
10658;BME280;5377;43.276;26.930;2023-07-30T04:49:12;98809.94;;;21.78;100.00
10658;BME280;5377;43.276;26.930;2023-07-30T04:51:39;98820.28;;;21.81;100.00
10658;BME280;5377;43.276;26.930;2023-07-30T04:54:06;98810.13;;;21.92;100.00
10658;BME280;5377;43.276;26.930;2023-07-30T04:56:33;98818.81;;;21.99;100.00
10658;BME280;5377;43.276;26.930;2023-07-30T04:59:00;98812.00;;;21.96;100.00
10658;BME280;5377;43.276;26.930;2023-07-30T05:01:28;98816.59;;;22.01;100.00
10658;BME280;5377;43.276;26.930;2023-07-30T05:03:56;98821.94;;;22.16;100.00
10658;BME280;5377;43.276;26.930;2023-07-30T05:06:24;98816.19;;;22.23;100.00
10658;BME280;5377;43.276;26.930;2023-07-30T05:08:51;98816.91;;;22.33;100.00
10658;BME280;5377;43.276;26.930;2023-07-30T05:11:18;98818.06;;;22.51;100.00
10658;BME280;5377;43.276;26.930;2023-07-30T05:13:45;98821.53;;;22.33;100.00
10658;BME280;5377;43.276;26.930;2023-07-30T05:16:12;98833.28;;;22.33;100.00
10658;BME280;5377;43.276;26.930;2023-07-30T05:18:38;98822.94;;;22.30;100.00
10658;BME280;5377;43.276;26.930;2023-07-30T05:21:05;98829.53;;;22.24;100.00
10658;BME280;5377;43.276;26.930;2023-07-30T05:23:33;98808.28;;;22.21;100.00
10658;BME280;5377;43.276;26.930;2023-07-30T05:26:00;98819.28;;;22.11;100.00
10658;BME280;5377;43.276;26.930;2023-07-30T05:28:27;98819.56;;;22.38;100.00
10658;BME280;5377;43.276;26.930;2023-07-30T05:30:54;98829.56;;;22.48;100.00
10658;BME280;5377;43.276;26.930;2023-07-30T05:33:20;98827.59;;;22.59;100.00
10658;BME280;5377;43.276;26.930;2023-07-30T05:35:47;98829.09;;;22.70;100.00
10658;BME280;5377;43.276;26.930;2023-07-30T05:38:14;98825.72;;;22.78;100.00
10658;BME280;5377;43.276;26.930;2023-07-30T05:41:01;98784.16;;;22.33;100.00
10658;BME280;5377;43.276;26.930;2023-07-30T05:43:28;98823.56;;;22.75;100.00
10658;BME280;5377;43.276;26.930;2023-07-30T05:45:56;98824.06;;;22.82;100.00
10658;BME280;5377;43.276;26.930;2023-07-30T05:48:22;98836.94;;;22.77;100.00
10658;BME280;5377;43.276;26.930;2023-07-30T05:50:49;98829.59;;;23.01;100.00
10658;BME280;5377;43.276;26.930;2023-07-30T05:53:16;98815.59;;;23.08;100.00
10658;BME280;5377;43.276;26.930;2023-07-30T05:55:44;98824.66;;;23.03;100.00
10658;BME280;5377;43.276;26.930;2023-07-30T05:58:11;98822.09;;;23.12;100.00
10658;BME280;5377;43.276;26.930;2023-07-30T06:00:38;98829.00;;;23.28;100.00
10658;BME280;5377;43.276;26.930;2023-07-30T06:03:04;98823.16;;;23.53;100.00
10658;BME280;5377;43.276;26.930;2023-07-30T06:05:33;98822.88;;;23.55;100.00
10658;BME280;5377;43.276;26.930;2023-07-30T06:08:00;98816.19;;;23.66;100.00
10658;BME280;5377;43.276;26.930;2023-07-30T06:10:28;98802.06;;;23.78;100.00
10658;BME280;5377;43.276;26.930;2023-07-30T06:12:56;98804.88;;;23.73;100.00
10658;BME280;5377;43.276;26.930;2023-07-30T06:15:23;98804.34;;;23.89;100.00
10658;BME280;5377;43.276;26.930;2023-07-30T06:17:50;98793.59;;;23.93;100.00
10658;BME280;5377;43.276;26.930;2023-07-30T06:20:17;98655.44;;;23.30;100.00
10658;BME280;5377;43.276;26.930;2023-07-30T06:22:44;98798.56;;;24.10;100.00
10658;BME280;5377;43.276;26.930;2023-07-30T06:25:11;98798.25;;;24.30;100.00
10658;BME280;5377;43.276;26.930;2023-07-30T06:27:37;98797.13;;;24.31;100.00
10658;BME280;5377;43.276;26.930;2023-07-30T06:30:07;98794.91;;;24.33;98.57
10658;BME280;5377;43.276;26.930;2023-07-30T06:32:34;98790.25;;;24.47;98.49
10658;BME280;5377;43.276;26.930;2023-07-30T06:35:00;98792.41;;;24.64;97.19
10658;BME280;5377;43.276;26.930;2023-07-30T06:37:28;98789.78;;;24.73;96.49
10658;BME280;5377;43.276;26.930;2023-07-30T06:39:55;98784.50;;;24.76;95.88
10658;BME280;5377;43.276;26.930;2023-07-30T06:42:21;98785.50;;;24.80;95.42
10658;BME280;5377;43.276;26.930;2023-07-30T06:44:48;98780.22;;;24.98;94.12
10658;BME280;5377;43.276;26.930;2023-07-30T06:47:17;98779.84;;;25.04;93.18
10658;BME280;5377;43.276;26.930;2023-07-30T06:49:43;98783.41;;;25.05;92.03
10658;BME280;5377;43.276;26.930;2023-07-30T06:52:10;98785.53;;;25.08;93.71
10658;BME280;5377;43.276;26.930;2023-07-30T06:54:37;98778.41;;;25.34;90.54
10658;BME280;5377;43.276;26.930;2023-07-30T06:57:04;98777.53;;;25.47;89.79
10658;BME280;5377;43.276;26.930;2023-07-30T06:59:31;98775.69;;;25.57;89.09
10658;BME280;5377;43.276;26.930;2023-07-30T07:01:58;98770.38;;;25.74;87.55
10658;BME280;5377;43.276;26.930;2023-07-30T07:04:26;98765.88;;;25.78;86.41
10658;BME280;5377;43.276;26.930;2023-07-30T07:06:53;98767.69;;;26.05;85.88
10658;BME280;5377;43.276;26.930;2023-07-30T07:09:20;98774.44;;;26.30;83.68
10658;BME280;5377;43.276;26.930;2023-07-30T07:11:46;98757.75;;;26.18;82.30
10658;BME280;5377;43.276;26.930;2023-07-30T07:14:13;98759.47;;;26.36;79.96
10658;BME280;5377;43.276;26.930;2023-07-30T07:16:40;98767.69;;;26.58;79.82
10658;BME280;5377;43.276;26.930;2023-07-30T07:19:07;98759.47;;;26.36;79.93
10658;BME280;5377;43.276;26.930;2023-07-30T07:21:35;98756.28;;;26.73;79.42
10658;BME280;5377;43.276;26.930;2023-07-30T07:24:02;98753.25;;;26.92;76.06
10658;BME280;5377;43.276;26.930;2023-07-30T07:26:29;98755.91;;;27.06;75.25
10658;BME280;5377;43.276;26.930;2023-07-30T07:28:55;98754.75;;;26.98;74.66
10658;BME280;5377;43.276;26.930;2023-07-30T07:31:22;98729.56;;;26.65;74.08
10658;BME280;5377;43.276;26.930;2023-07-30T07:33:49;98755.84;;;26.89;74.27
10658;BME280;5377;43.276;26.930;2023-07-30T07:36:16;98758.53;;;27.20;73.54
10658;BME280;5377;43.276;26.930;2023-07-30T07:38:45;98752.69;;;27.30;73.04
10658;BME280;5377;43.276;26.930;2023-07-30T07:41:14;98737.97;;;27.26;73.06
10658;BME280;5377;43.276;26.930;2023-07-30T07:43:41;98746.06;;;27.31;69.55
10658;BME280;5377;43.276;26.930;2023-07-30T07:46:08;98776.84;;;27.59;69.01
10658;BME280;5377;43.276;26.930;2023-07-30T07:48:38;98737.22;;;27.77;65.60
10658;BME280;5377;43.276;26.930;2023-07-30T07:51:06;98725.22;;;27.56;63.64
10658;BME280;5377;43.276;26.930;2023-07-30T07:53:32;98737.19;;;27.60;62.83
10658;BME280;5377;43.276;26.930;2023-07-30T07:56:00;98727.66;;;27.83;62.83
10658;BME280;5377;43.276;26.930;2023-07-30T07:58:27;98654.31;;;27.70;61.42
10658;BME280;5377;43.276;26.930;2023-07-30T08:00:55;98720.50;;;28.00;59.53
10658;BME280;5377;43.276;26.930;2023-07-30T08:03:22;98720.75;;;28.33;58.76
10658;BME280;5377;43.276;26.930;2023-07-30T08:05:48;98706.28;;;28.44;58.88
10658;BME280;5377;43.276;26.930;2023-07-30T08:08:16;98713.72;;;28.52;58.08
10658;BME280;5377;43.276;26.930;2023-07-30T08:10:42;98710.81;;;28.40;56.42
10658;BME280;5377;43.276;26.930;2023-07-30T08:13:13;98710.06;;;28.31;56.55
10658;BME280;5377;43.276;26.930;2023-07-30T08:15:40;98710.97;;;28.44;56.53
10658;BME280;5377;43.276;26.930;2023-07-30T08:18:07;98704.22;;;28.71;53.39
10658;BME280;5377;43.276;26.930;2023-07-30T08:20:33;98704.16;;;28.88;52.72
10658;BME280;5377;43.276;26.930;2023-07-30T08:23:00;98706.88;;;29.17;49.35
10658;BME280;5377;43.276;26.930;2023-07-30T08:25:27;98698.72;;;29.84;48.70
10658;BME280;5377;43.276;26.930;2023-07-30T08:27:54;98695.63;;;30.42;46.83
10658;BME280;5377;43.276;26.930;2023-07-30T08:30:22;98688.97;;;30.56;46.05
10658;BME280;5377;43.276;26.930;2023-07-30T08:32:49;98689.31;;;31.43;43.50
10658;BME280;5377;43.276;26.930;2023-07-30T08:35:15;98683.59;;;31.92;42.59
10658;BME280;5377;43.276;26.930;2023-07-30T08:37:42;98683.63;;;32.23;41.83
10658;BME280;5377;43.276;26.930;2023-07-30T08:40:10;98678.28;;;32.62;39.96
10658;BME280;5377;43.276;26.930;2023-07-30T08:42:37;98672.72;;;33.13;38.77
10658;BME280;5377;43.276;26.930;2023-07-30T08:45:06;98658.47;;;33.14;37.31
10658;BME280;5377;43.276;26.930;2023-07-30T08:47:35;98672.94;;;33.39;37.06
10658;BME280;5377;43.276;26.930;2023-07-30T08:50:02;98667.16;;;33.67;35.68
10658;BME280;5377;43.276;26.930;2023-07-30T08:52:29;98667.50;;;34.31;35.42
10658;BME280;5377;43.276;26.930;2023-07-30T08:54:57;98661.72;;;33.74;34.16
10658;BME280;5377;43.276;26.930;2023-07-30T08:57:28;98658.84;;;33.90;33.98
10658;BME280;5377;43.276;26.930;2023-07-30T09:00:02;98655.69;;;34.60;33.39
10658;BME280;5377;43.276;26.930;2023-07-30T09:02:37;98660.97;;;34.20;33.30
10658;BME280;5377;43.276;26.930;2023-07-30T09:05:05;98662.38;;;34.33;33.17
10658;BME280;5377;43.276;26.930;2023-07-30T09:07:32;98662.38;;;34.56;32.71
10658;BME280;5377;43.276;26.930;2023-07-30T09:09:59;98638.91;;;34.53;32.75
10658;BME280;5377;43.276;26.930;2023-07-30T09:12:26;98631.88;;;34.86;32.49
10658;BME280;5377;43.276;26.930;2023-07-30T09:14:55;98652.28;;;34.97;31.72
10658;BME280;5377;43.276;26.930;2023-07-30T09:17:21;98638.31;;;34.93;31.45
10658;BME280;5377;43.276;26.930;2023-07-30T09:19:50;98646.19;;;34.88;31.70
10658;BME280;5377;43.276;26.930;2023-07-30T09:22:20;98644.25;;;34.65;30.89
10658;BME280;5377;43.276;26.930;2023-07-30T09:24:47;98648.34;;;34.71;30.96
10658;BME280;5377;43.276;26.930;2023-07-30T09:27:14;98642.28;;;35.22;30.61
10658;BME280;5377;43.276;26.930;2023-07-30T09:29:50;98648.44;;;34.79;31.03
10658;BME280;5377;43.276;26.930;2023-07-30T09:32:17;98637.44;;;34.86;29.98
10658;BME280;5377;43.276;26.930;2023-07-30T09:34:45;98631.19;;;35.93;29.85
10658;BME280;5377;43.276;26.930;2023-07-30T09:37:13;98640.94;;;35.09;30.67
10658;BME280;5377;43.276;26.930;2023-07-30T09:39:40;98634.41;;;35.61;29.62
10658;BME280;5377;43.276;26.930;2023-07-30T09:42:07;98621.22;;;36.36;27.20
10658;BME280;5377;43.276;26.930;2023-07-30T09:44:36;98465.16;;;35.48;28.49
10658;BME280;5377;43.276;26.930;2023-07-30T09:47:04;98623.31;;;36.02;29.36
10658;BME280;5377;43.276;26.930;2023-07-30T09:49:31;98618.00;;;36.85;28.43
10658;BME280;5377;43.276;26.930;2023-07-30T09:51:58;98614.47;;;36.37;29.07
10658;BME280;5377;43.276;26.930;2023-07-30T09:54:28;98622.91;;;35.63;28.13
10658;BME280;5377;43.276;26.930;2023-07-30T09:56:55;98616.16;;;35.68;29.33
10658;BME280;5377;43.276;26.930;2023-07-30T09:59:23;98603.75;;;35.99;28.26
10658;BME280;5377;43.276;26.930;2023-07-30T10:01:50;98603.78;;;36.46;28.01
10658;BME280;5377;43.276;26.930;2023-07-30T10:04:20;98600.34;;;36.74;29.18
10658;BME280;5377;43.276;26.930;2023-07-30T10:06:51;98596.97;;;37.09;27.97
10658;BME280;5377;43.276;26.930;2023-07-30T10:09:20;98589.94;;;37.44;27.25
10658;BME280;5377;43.276;26.930;2023-07-30T10:11:51;98593.66;;;37.91;27.01
10658;BME280;5377;43.276;26.930;2023-07-30T10:14:34;98592.06;;;37.97;27.46
10658;BME280;5377;43.276;26.930;2023-07-30T10:17:01;98577.06;;;35.98;27.36
10658;BME280;5377;43.276;26.930;2023-07-30T10:19:29;98597.94;;;36.14;27.61
10658;BME280;5377;43.276;26.930;2023-07-30T10:22:20;98583.59;;;36.71;27.66
10658;BME280;5377;43.276;26.930;2023-07-30T10:24:55;98580.34;;;37.38;27.26
10658;BME280;5377;43.276;26.930;2023-07-30T10:27:25;98563.34;;;36.26;27.27
10658;BME280;5377;43.276;26.930;2023-07-30T10:30:10;98589.50;;;36.55;26.96
10658;BME280;5377;43.276;26.930;2023-07-30T10:32:38;98577.66;;;36.21;27.95
10658;BME280;5377;43.276;26.930;2023-07-30T10:35:06;98566.13;;;35.04;28.64
10658;BME280;5377;43.276;26.930;2023-07-30T10:37:32;98580.00;;;36.12;27.88
10658;BME280;5377;43.276;26.930;2023-07-30T10:39:59;98568.31;;;37.20;27.40
10658;BME280;5377;43.276;26.930;2023-07-30T10:42:34;98560.78;;;37.38;26.87
10658;BME280;5377;43.276;26.930;2023-07-30T10:45:01;98565.63;;;37.55;27.39
10658;BME280;5377;43.276;26.930;2023-07-30T10:47:34;98554.06;;;37.67;26.92
10658;BME280;5377;43.276;26.930;2023-07-30T10:50:01;98557.41;;;36.86;26.63
10658;BME280;5377;43.276;26.930;2023-07-30T10:52:29;98550.38;;;36.48;27.39
10658;BME280;5377;43.276;26.930;2023-07-30T10:54:59;98528.22;;;36.14;27.57
10658;BME280;5377;43.276;26.930;2023-07-30T10:57:30;98541.72;;;36.67;26.69
10658;BME280;5377;43.276;26.930;2023-07-30T10:59:59;98542.91;;;36.70;27.47
10658;BME280;5377;43.276;26.930;2023-07-30T11:02:28;98545.56;;;37.21;27.12
10658;BME280;5377;43.276;26.930;2023-07-30T11:04:55;98528.56;;;36.71;26.58
10658;BME280;5377;43.276;26.930;2023-07-30T11:07:21;98531.66;;;36.48;26.71
10658;BME280;5377;43.276;26.930;2023-07-30T11:10:00;98512.03;;;36.34;26.73
10658;BME280;5377;43.276;26.930;2023-07-30T11:12:27;98537.69;;;36.58;27.01
10658;BME280;5377;43.276;26.930;2023-07-30T11:15:02;98486.72;;;36.06;26.64
10658;BME280;5377;43.276;26.930;2023-07-30T11:17:28;98526.06;;;37.46;26.38
10658;BME280;5377;43.276;26.930;2023-07-30T11:19:55;98528.41;;;37.19;25.56
10658;BME280;5377;43.276;26.930;2023-07-30T11:22:29;98517.69;;;37.42;25.64
10658;BME280;5377;43.276;26.930;2023-07-30T11:24:56;98515.31;;;37.48;25.54
10658;BME280;5377;43.276;26.930;2023-07-30T11:27:23;98515.28;;;37.41;25.88
10658;BME280;5377;43.276;26.930;2023-07-30T11:29:58;98488.94;;;37.31;26.46
10658;BME280;5377;43.276;26.930;2023-07-30T11:32:29;98495.72;;;38.41;25.17
10658;BME280;5377;43.276;26.930;2023-07-30T11:34:56;98491.78;;;37.99;25.02
10658;BME280;5377;43.276;26.930;2023-07-30T11:37:23;98497.38;;;38.24;24.49
10658;BME280;5377;43.276;26.930;2023-07-30T11:39:51;98508.78;;;37.01;24.97
10658;BME280;5377;43.276;26.930;2023-07-30T11:42:19;98508.47;;;36.37;25.32
10658;BME280;5377;43.276;26.930;2023-07-30T11:44:46;98514.72;;;36.20;25.11
10658;BME280;5377;43.276;26.930;2023-07-30T11:47:20;98507.84;;;36.07;25.79
10658;BME280;5377;43.276;26.930;2023-07-30T11:49:56;98507.63;;;37.13;24.95
10658;BME280;5377;43.276;26.930;2023-07-30T11:52:23;98497.38;;;37.77;24.53
10658;BME280;5377;43.276;26.930;2023-07-30T11:54:59;98502.06;;;37.24;24.31
10658;BME280;5377;43.276;26.930;2023-07-30T11:57:33;98496.19;;;37.96;23.98
10658;BME280;5377;43.276;26.930;2023-07-30T12:00:00;98485.75;;;37.43;24.17
10658;BME280;5377;43.276;26.930;2023-07-30T12:02:28;98487.41;;;37.91;23.93
10658;BME280;5377;43.276;26.930;2023-07-30T12:04:56;98474.63;;;37.83;24.27
10658;BME280;5377;43.276;26.930;2023-07-30T12:07:23;98485.81;;;37.72;24.88
10658;BME280;5377;43.276;26.930;2023-07-30T12:09:50;98481.03;;;37.83;23.58
10658;BME280;5377;43.276;26.930;2023-07-30T12:12:17;98475.75;;;38.14;23.71
10658;BME280;5377;43.276;26.930;2023-07-30T12:14:52;98477.75;;;38.34;23.55
10658;BME280;5377;43.276;26.930;2023-07-30T12:17:20;98461.41;;;39.24;22.68
10658;BME280;5377;43.276;26.930;2023-07-30T12:19:46;98459.13;;;39.64;22.58
10658;BME280;5377;43.276;26.930;2023-07-30T12:22:14;98454.06;;;39.41;22.46
10658;BME280;5377;43.276;26.930;2023-07-30T12:24:42;98451.03;;;39.73;22.04
10658;BME280;5377;43.276;26.930;2023-07-30T12:27:08;98451.25;;;39.92;21.59
10658;BME280;5377;43.276;26.930;2023-07-30T12:29:35;98431.59;;;39.44;22.56
10658;BME280;5377;43.276;26.930;2023-07-30T12:32:03;98449.72;;;38.52;22.94
10658;BME280;5377;43.276;26.930;2023-07-30T12:34:30;98452.59;;;38.31;22.38
10658;BME280;5377;43.276;26.930;2023-07-30T12:36:56;98421.44;;;39.13;22.08
10658;BME280;5377;43.276;26.930;2023-07-30T12:39:25;98402.25;;;39.11;22.14
10658;BME280;5377;43.276;26.930;2023-07-30T12:41:52;98434.09;;;40.25;21.32
10658;BME280;5377;43.276;26.930;2023-07-30T12:44:18;98427.78;;;40.51;21.15
10658;BME280;5377;43.276;26.930;2023-07-30T12:46:45;98435.88;;;40.79;20.56
10658;BME280;5377;43.276;26.930;2023-07-30T12:49:12;98433.94;;;40.01;20.95
10658;BME280;5377;43.276;26.930;2023-07-30T12:51:39;98435.03;;;40.48;21.34
10658;BME280;5377;43.276;26.930;2023-07-30T12:54:05;98428.34;;;40.69;20.45
10658;BME280;5377;43.276;26.930;2023-07-30T12:56:34;98427.94;;;39.58;21.60
10658;BME280;5377;43.276;26.930;2023-07-30T12:59:00;98424.03;;;39.41;21.70